Time;durP1;ratioP1;P1;durP2;ratioP2;P2;SDS_P1;SDS_P2;PMS_P1;PMS_P2;Temp;Humidity;BMP_temperature;BMP_pressure;BME280_temperature;BME280_humidity;BME280_pressure;Samples;Min_cycle;Max_cycle;Signal;HPM_P1;HPM_P2
2024/01/25 00:00:17;;;;;;;3.60;2.67;;;;;;;;;;4974460;28;20027;-66
2024/01/25 00:02:42;;;;;;;5.63;2.78;;;;;;;;;;4974863;28;20031;-70
2024/01/25 00:05:08;;;;;;;4.20;2.50;;;;;;;;;;4974339;28;20559;-68
2024/01/25 00:07:34;;;;;;;4.75;2.55;;;;;;;;;;4974431;28;20104;-68
2024/01/25 00:10:00;;;;;;;3.67;2.38;;;;;;;;;;4974066;28;20034;-69
2024/01/25 00:12:26;;;;;;;8.23;2.97;;;;;;;;;;4974687;28;20438;-68
2024/01/25 00:14:52;;;;;;;4.63;2.65;;;;;;;;;;4974369;28;20057;-67
2024/01/25 00:17:18;;;;;;;3.47;2.55;;;;;;;;;;4973927;28;20027;-68
2024/01/25 00:19:43;;;;;;;4.72;2.67;;;;;;;;;;4974319;28;20030;-67
2024/01/25 00:22:09;;;;;;;5.40;2.60;;;;;;;;;;4974480;28;20042;-68
2024/01/25 00:24:36;;;;;;;4.70;2.63;;;;;;;;;;4974586;28;20034;-67
2024/01/25 00:27:02;;;;;;;5.30;2.70;;;;;;;;;;4974282;28;20073;-68
2024/01/25 00:29:30;;;;;;;5.22;3.25;;;;;;;;;;4974473;28;20035;-67
2024/01/25 00:31:56;;;;;;;7.80;3.47;;;;;;;;;;4974208;28;20106;-67
2024/01/25 00:34:22;;;;;;;7.57;2.60;;;;;;;;;;4974395;28;20105;-67
2024/01/25 00:36:47;;;;;;;6.22;2.53;;;;;;;;;;4974303;28;20023;-67
2024/01/25 00:39:13;;;;;;;6.75;3.08;;;;;;;;;;4974281;28;20034;-67
2024/01/25 00:41:41;;;;;;;4.85;2.80;;;;;;;;;;4974067;28;20476;-67
2024/01/25 00:44:07;;;;;;;5.15;2.88;;;;;;;;;;4972188;28;20023;-66
2024/01/25 00:46:33;;;;;;;5.40;2.47;;;;;;;;;;4973139;28;20030;-66
2024/01/25 00:48:58;;;;;;;4.60;2.75;;;;;;;;;;4972759;28;20092;-66
2024/01/25 00:51:24;;;;;;;3.60;2.50;;;;;;;;;;4973065;28;20026;-66
2024/01/25 00:53:50;;;;;;;7.50;2.72;;;;;;;;;;4972146;28;20029;-67
2024/01/25 00:56:16;;;;;;;14.43;2.95;;;;;;;;;;4972665;28;20383;-66
2024/01/25 00:58:42;;;;;;;3.42;2.42;;;;;;;;;;4972833;28;20059;-67
2024/01/25 01:01:09;;;;;;;7.65;2.60;;;;;;;;;;4972663;28;20026;-67
2024/01/25 01:03:35;;;;;;;7.45;2.90;;;;;;;;;;4971104;28;20050;-68
2024/01/25 01:06:01;;;;;;;9.45;4.10;;;;;;;;;;4970861;28;20121;-67
2024/01/25 01:08:27;;;;;;;5.53;2.67;;;;;;;;;;4972484;28;20126;-70
2024/01/25 01:10:53;;;;;;;8.23;3.10;;;;;;;;;;4971518;28;20426;-69
2024/01/25 01:13:19;;;;;;;12.60;2.63;;;;;;;;;;4972434;28;20015;-67
2024/01/25 01:15:44;;;;;;;10.23;3.00;;;;;;;;;;4972677;28;20033;-66
2024/01/25 01:18:10;;;;;;;9.13;3.20;;;;;;;;;;4971769;28;20379;-70
2024/01/25 01:20:35;;;;;;;11.52;2.88;;;;;;;;;;4972466;28;20431;-66
2024/01/25 01:23:01;;;;;;;11.50;3.03;;;;;;;;;;4971165;28;20510;-67
2024/01/25 01:25:26;;;;;;;6.28;3.05;;;;;;;;;;4972678;28;20027;-66
2024/01/25 01:27:52;;;;;;;8.73;2.63;;;;;;;;;;4972184;28;20027;-66
2024/01/25 01:30:17;;;;;;;6.72;2.95;;;;;;;;;;4971917;28;20038;-67
2024/01/25 01:32:44;;;;;;;8.10;2.70;;;;;;;;;;4972737;28;20434;-67
2024/01/25 01:35:10;;;;;;;15.05;2.90;;;;;;;;;;4971398;28;20030;-66
2024/01/25 01:37:35;;;;;;;8.57;2.40;;;;;;;;;;4972595;28;20015;-68
2024/01/25 01:40:01;;;;;;;8.38;2.63;;;;;;;;;;4972247;28;20022;-66
2024/01/25 01:42:27;;;;;;;8.15;3.05;;;;;;;;;;4972363;28;20961;-67
2024/01/25 01:44:53;;;;;;;8.25;3.22;;;;;;;;;;4971451;28;20054;-65
2024/01/25 01:47:19;;;;;;;4.18;2.65;;;;;;;;;;4970978;28;20086;-66
2024/01/25 01:49:45;;;;;;;10.13;2.80;;;;;;;;;;4972255;28;20648;-69
2024/01/25 01:52:11;;;;;;;12.93;2.85;;;;;;;;;;4970980;28;20036;-66
2024/01/25 01:54:37;;;;;;;9.43;2.72;;;;;;;;;;4963972;28;21008;-67
2024/01/25 01:57:03;;;;;;;9.13;2.90;;;;;;;;;;4962930;28;20035;-65
2024/01/25 01:59:29;;;;;;;6.82;2.80;;;;;;;;;;4963727;28;20154;-66
2024/01/25 02:01:55;;;;;;;9.77;2.83;;;;;;;;;;4962786;28;20030;-67
2024/01/25 02:04:20;;;;;;;10.30;2.58;;;;;;;;;;4961217;28;20121;-67
2024/01/25 02:06:46;;;;;;;9.00;2.60;;;;;;;;;;4964741;28;20046;-66
2024/01/25 09:04:02;;;;;;;3.72;2.60;;;;;;;;;;5944361;23;20380;-69
2024/01/25 09:06:27;;;;;;;4.93;2.97;;;;;;;;;;4968833;28;20475;-71
2024/01/25 09:08:53;;;;;;;3.53;2.85;;;;;;;;;;4969220;28;20054;-70
2024/01/25 09:11:19;;;;;;;3.83;2.70;;;;;;;;;;4969312;28;20398;-69
2024/01/25 09:13:47;;;;;;;3.72;2.88;;;;;;;;;;4969622;28;20034;-69
2024/01/25 09:16:13;;;;;;;3.70;2.72;;;;;;;;;;4968300;28;20054;-68
2024/01/25 09:18:38;;;;;;;3.47;2.80;;;;;;;;;;4969461;28;20058;-68
2024/01/25 09:21:04;;;;;;;3.60;2.80;;;;;;;;;;4969403;28;20130;-69
2024/01/25 09:23:30;;;;;;;4.28;2.50;;;;;;;;;;4969451;28;20077;-67
2024/01/25 09:25:55;;;;;;;3.33;2.72;;;;;;;;;;4950375;28;20079;-68
2024/01/25 09:28:21;;;;;;;3.83;3.22;;;;;;;;;;4969282;28;20122;-68
2024/01/25 09:30:46;;;;;;;2.97;2.70;;;;;;;;;;4969162;28;20484;-70
2024/01/25 09:33:12;;;;;;;5.55;3.00;;;;;;;;;;4969238;28;20473;-69
2024/01/25 09:35:38;;;;;;;3.92;3.25;;;;;;;;;;4968986;28;20057;-70
2024/01/25 09:38:03;;;;;;;4.43;3.10;;;;;;;;;;4950488;28;20069;-69
2024/01/25 09:40:29;;;;;;;3.60;2.72;;;;;;;;;;4968334;28;20387;-69
2024/01/25 09:42:55;;;;;;;3.42;2.90;;;;;;;;;;4975517;28;20407;-70
2024/01/25 09:45:20;;;;;;;4.05;2.70;;;;;;;;;;4976496;28;20030;-68
2024/01/25 09:47:47;;;;;;;3.15;2.60;;;;;;;;;;4976460;28;20023;-68
2024/01/25 09:50:14;;;;;;;3.83;2.92;;;;;;;;;;4975488;28;20054;-68
2024/01/25 09:52:43;;;;;;;3.80;2.80;;;;;;;;;;4975879;28;20118;-67
2024/01/25 09:55:17;;;;;;;3.00;2.70;;;;;;;;;;4974680;28;20023;-71
2024/01/25 09:57:48;;;;;;;3.65;2.53;;;;;;;;;;4959306;28;20023;-69
2024/01/25 10:00:15;;;;;;;2.70;2.50;;;;;;;;;;4976275;28;20039;-69
2024/01/25 10:02:41;;;;;;;3.22;2.85;;;;;;;;;;4974864;28;20031;-69
2024/01/25 10:05:07;;;;;;;3.85;2.90;;;;;;;;;;4974083;28;20128;-69
2024/01/25 10:07:40;;;;;;;4.35;2.60;;;;;;;;;;4975735;28;20045;-69
2024/01/25 10:10:06;;;;;;;3.42;2.35;;;;;;;;;;4975624;28;20109;-70
2024/01/25 10:12:32;;;;;;;3.28;2.50;;;;;;;;;;4975707;28;20045;-69
2024/01/25 10:14:59;;;;;;;3.50;2.55;;;;;;;;;;4975658;28;20491;-69
2024/01/25 10:17:25;;;;;;;3.42;2.53;;;;;;;;;;4975803;28;20025;-70
2024/01/25 10:19:51;;;;;;;3.75;2.85;;;;;;;;;;4974983;28;20039;-71
2024/01/25 10:22:18;;;;;;;3.42;2.60;;;;;;;;;;4974619;28;20015;-71
2024/01/25 10:24:44;;;;;;;3.47;2.63;;;;;;;;;;4975424;28;20030;-70
2024/01/25 10:27:10;;;;;;;3.20;2.70;;;;;;;;;;4973378;28;20113;-70
2024/01/25 10:29:38;;;;;;;4.93;2.70;;;;;;;;;;4975510;28;20038;-69
2024/01/25 10:32:04;;;;;;;3.30;2.70;;;;;;;;;;4966602;28;20507;-67
2024/01/25 10:34:30;;;;;;;5.03;2.88;;;;;;;;;;4974212;28;20410;-69
2024/01/25 10:36:57;;;;;;;10.98;2.95;;;;;;;;;;4974092;28;20074;-72
2024/01/25 10:39:24;;;;;;;5.03;2.97;;;;;;;;;;4957803;28;20432;-69
2024/01/25 10:41:50;;;;;;;5.90;2.95;;;;;;;;;;4975294;28;20023;-68
2024/01/25 10:44:19;;;;;;;3.67;2.67;;;;;;;;;;4975309;28;20050;-69
2024/01/25 10:46:48;;;;;;;6.55;2.80;;;;;;;;;;4976630;28;20030;-68
2024/01/25 10:49:14;;;;;;;6.40;2.88;;;;;;;;;;4974680;28;20035;-69
2024/01/25 10:51:41;;;;;;;5.22;3.47;;;;;;;;;;4974727;28;20656;-70
2024/01/25 10:54:12;;;;;;;5.15;3.65;;;;;;;;;;4973938;28;20514;-68
2024/01/25 10:56:45;;;;;;;8.00;4.10;;;;;;;;;;4974571;28;20034;-68
2024/01/25 10:59:11;;;;;;;8.68;4.07;;;;;;;;;;4974741;28;20471;-67
2024/01/25 11:01:37;;;;;;;9.50;4.32;;;;;;;;;;4974505;28;20034;-76
2024/01/25 11:04:11;;;;;;;8.60;3.63;;;;;;;;;;4974103;28;20085;-75
2024/01/25 11:06:37;;;;;;;6.00;3.55;;;;;;;;;;4974514;28;20031;-68
2024/01/25 11:09:06;;;;;;;7.55;3.72;;;;;;;;;;4956735;28;20391;-68
2024/01/25 11:11:32;;;;;;;6.22;3.83;;;;;;;;;;4974784;28;20078;-68
2024/01/25 11:13:59;;;;;;;6.13;4.20;;;;;;;;;;4977310;28;20030;-69
2024/01/25 11:16:34;;;;;;;8.02;4.15;;;;;;;;;;4976615;28;20018;-69
2024/01/25 11:19:09;;;;;;;6.18;3.95;;;;;;;;;;4993888;28;20395;-69
2024/01/25 11:21:41;;;;;;;7.78;3.80;;;;;;;;;;4993638;28;20058;-69
2024/01/25 11:24:26;;;;;;;5.88;3.38;;;;;;;;;;4993997;28;20387;-69
2024/01/25 11:26:53;;;;;;;6.07;3.80;;;;;;;;;;4993496;28;20037;-68
2024/01/25 11:29:22;;;;;;;5.63;3.78;;;;;;;;;;4993418;28;20386;-69
2024/01/25 11:31:49;;;;;;;7.03;4.00;;;;;;;;;;4993245;28;20092;-70
2024/01/25 11:34:16;;;;;;;5.47;3.67;;;;;;;;;;4993218;28;20038;-70
2024/01/25 11:36:42;;;;;;;7.60;4.32;;;;;;;;;;4994060;28;20538;-73
2024/01/25 11:39:12;;;;;;;5.88;4.30;;;;;;;;;;4994355;28;20061;-74
2024/01/25 11:41:38;;;;;;;4.60;3.58;;;;;;;;;;4993395;28;20365;-74
2024/01/25 11:44:04;;;;;;;5.18;3.75;;;;;;;;;;4993401;28;20026;-70
2024/01/25 11:46:31;;;;;;;5.65;3.95;;;;;;;;;;4975788;28;20112;-70
2024/01/25 11:48:58;;;;;;;8.73;3.80;;;;;;;;;;4987843;28;20038;-70
2024/01/25 11:51:24;;;;;;;6.45;4.20;;;;;;;;;;4972374;28;20468;-69
2024/01/25 11:53:50;;;;;;;6.18;4.07;;;;;;;;;;4973615;28;20381;-74
2024/01/25 11:56:28;;;;;;;7.25;4.13;;;;;;;;;;4973365;28;20022;-70
2024/01/25 11:58:56;;;;;;;6.03;3.90;;;;;;;;;;4972894;28;20027;-71
2024/01/25 12:01:23;;;;;;;14.98;4.32;;;;;;;;;;4971790;28;20387;-72
2024/01/25 12:03:49;;;;;;;9.38;4.13;;;;;;;;;;4971879;28;20023;-70
2024/01/25 12:06:15;;;;;;;7.18;3.55;;;;;;;;;;4971502;28;20054;-70
2024/01/25 12:08:40;;;;;;;12.52;3.75;;;;;;;;;;4972789;28;20027;-70
2024/01/25 12:11:10;;;;;;;6.47;3.78;;;;;;;;;;4971904;28;20403;-70
2024/01/25 12:13:38;;;;;;;8.80;3.85;;;;;;;;;;4971839;28;20375;-71
2024/01/25 12:16:04;;;;;;;7.45;3.83;;;;;;;;;;4972648;28;20443;-70
2024/01/25 12:18:31;;;;;;;7.38;3.50;;;;;;;;;;4972753;28;20391;-71
2024/01/25 12:21:00;;;;;;;7.05;3.60;;;;;;;;;;4972883;28;20019;-70
2024/01/25 12:23:36;;;;;;;7.78;3.75;;;;;;;;;;4954867;28;20431;-71
2024/01/25 12:26:04;;;;;;;4.40;3.50;;;;;;;;;;4972691;28;20022;-71
2024/01/25 12:28:31;;;;;;;7.30;4.00;;;;;;;;;;4972872;28;20036;-72
2024/01/25 12:30:57;;;;;;;6.32;3.78;;;;;;;;;;4972666;28;20357;-70
2024/01/25 12:33:22;;;;;;;7.07;3.90;;;;;;;;;;4972781;28;20469;-70
2024/01/25 12:35:48;;;;;;;5.78;3.67;;;;;;;;;;4972595;28;20070;-70
2024/01/25 12:38:14;;;;;;;7.72;3.70;;;;;;;;;;4972613;28;20018;-70
2024/01/25 12:40:41;;;;;;;4.57;3.53;;;;;;;;;;4972684;28;20400;-70
2024/01/25 12:43:07;;;;;;;9.30;4.03;;;;;;;;;;4972503;28;20498;-70
2024/01/25 12:45:33;;;;;;;4.68;3.30;;;;;;;;;;4972691;28;20027;-70
2024/01/25 12:47:58;;;;;;;5.65;3.35;;;;;;;;;;4972536;28;20202;-70
2024/01/25 12:50:24;;;;;;;4.10;3.35;;;;;;;;;;4972648;28;20085;-72
2024/01/25 12:52:50;;;;;;;6.65;3.58;;;;;;;;;;4972293;28;20155;-71
2024/01/25 12:55:16;;;;;;;6.30;3.88;;;;;;;;;;4972315;28;20031;-70
2024/01/25 12:57:41;;;;;;;8.70;3.72;;;;;;;;;;4972351;28;20026;-70
2024/01/25 13:00:08;;;;;;;5.25;3.45;;;;;;;;;;4954922;28;20035;-69
2024/01/25 13:02:33;;;;;;;4.95;3.35;;;;;;;;;;4972512;28;20102;-70
2024/01/25 13:04:59;;;;;;;4.28;3.35;;;;;;;;;;4971943;28;20483;-70
2024/01/25 13:07:24;;;;;;;6.97;3.50;;;;;;;;;;4972090;28;20026;-71
2024/01/25 13:09:50;;;;;;;5.47;3.40;;;;;;;;;;4972109;28;20085;-71
2024/01/25 13:12:15;;;;;;;5.85;3.60;;;;;;;;;;4972335;28;20027;-71
2024/01/25 13:14:41;;;;;;;4.65;3.38;;;;;;;;;;4972055;28;20110;-71
2024/01/25 13:17:07;;;;;;;6.75;3.50;;;;;;;;;;4971947;28;20463;-71
2024/01/25 13:19:34;;;;;;;6.20;3.25;;;;;;;;;;4971915;28;20043;-70
2024/01/25 13:22:00;;;;;;;4.28;3.25;;;;;;;;;;4972084;28;20094;-69
2024/01/25 13:24:25;;;;;;;4.30;3.30;;;;;;;;;;4972268;28;20475;-69
2024/01/25 13:26:51;;;;;;;6.25;3.42;;;;;;;;;;4971909;28;20477;-71
2024/01/25 13:29:16;;;;;;;3.38;2.95;;;;;;;;;;4971856;28;20030;-71
2024/01/25 13:31:42;;;;;;;6.35;3.45;;;;;;;;;;4972280;28;20038;-69
2024/01/25 13:34:07;;;;;;;7.65;3.53;;;;;;;;;;4972057;28;20035;-72
2024/01/25 13:36:33;;;;;;;4.07;3.33;;;;;;;;;;4971717;28;20106;-71
2024/01/25 13:38:58;;;;;;;4.85;3.20;;;;;;;;;;4972179;28;20031;-70
2024/01/25 13:41:24;;;;;;;5.90;3.33;;;;;;;;;;4972775;28;20110;-69
2024/01/25 13:43:49;;;;;;;4.97;3.30;;;;;;;;;;4971766;28;20435;-69
2024/01/25 13:46:15;;;;;;;4.80;3.40;;;;;;;;;;4970741;28;20023;-69
2024/01/25 13:48:40;;;;;;;4.43;3.25;;;;;;;;;;4970760;28;20010;-69
2024/01/25 13:51:06;;;;;;;3.45;2.92;;;;;;;;;;4970748;28;20395;-74
2024/01/25 13:53:32;;;;;;;4.90;3.67;;;;;;;;;;4971191;28;20022;-69
2024/01/25 13:55:57;;;;;;;5.32;3.08;;;;;;;;;;4971443;28;20248;-70
2024/01/25 13:58:23;;;;;;;7.00;3.47;;;;;;;;;;4971922;28;20034;-69
2024/01/25 14:00:48;;;;;;;7.75;3.67;;;;;;;;;;4971727;28;20071;-71
2024/01/25 14:03:16;;;;;;;4.20;3.10;;;;;;;;;;4972257;28;20031;-70
2024/01/25 14:05:42;;;;;;;4.00;3.17;;;;;;;;;;4971479;28;20047;-69
2024/01/25 14:08:08;;;;;;;5.28;3.22;;;;;;;;;;4971769;28;20031;-69
2024/01/25 14:10:34;;;;;;;3.70;3.00;;;;;;;;;;4971519;28;20066;-68
2024/01/25 14:13:00;;;;;;;6.43;3.40;;;;;;;;;;4969957;28;20063;-71
2024/01/25 14:15:26;;;;;;;4.70;3.20;;;;;;;;;;4972070;28;20213;-72
2024/01/25 14:17:51;;;;;;;5.03;2.92;;;;;;;;;;4971713;28;20034;-69
2024/01/25 14:20:17;;;;;;;6.35;3.30;;;;;;;;;;4971556;28;20043;-69
2024/01/25 14:22:43;;;;;;;4.38;3.00;;;;;;;;;;4971608;28;20034;-68
2024/01/25 14:25:09;;;;;;;12.18;3.40;;;;;;;;;;4971743;28;20037;-68
2024/01/25 14:27:35;;;;;;;5.15;3.05;;;;;;;;;;4972005;28;20559;-69
2024/01/25 14:30:03;;;;;;;6.15;3.40;;;;;;;;;;4975085;28;20070;-70
2024/01/25 14:32:29;;;;;;;5.30;3.17;;;;;;;;;;4973042;28;20067;-70
2024/01/25 14:34:54;;;;;;;4.78;3.40;;;;;;;;;;4974882;28;20178;-69
2024/01/25 14:37:20;;;;;;;3.90;2.85;;;;;;;;;;4974960;28;20114;-69
2024/01/25 14:39:45;;;;;;;6.53;3.25;;;;;;;;;;4974785;28;20089;-69
2024/01/25 14:42:11;;;;;;;8.07;3.28;;;;;;;;;;4975057;28;20066;-69
2024/01/25 14:44:38;;;;;;;7.63;3.47;;;;;;;;;;4974891;28;20026;-71
2024/01/25 14:47:03;;;;;;;5.30;2.80;;;;;;;;;;4974869;28;20027;-70
2024/01/25 14:49:29;;;;;;;5.97;3.45;;;;;;;;;;4975293;28;20033;-70
2024/01/25 14:51:54;;;;;;;6.45;3.00;;;;;;;;;;4974773;28;20490;-70
2024/01/25 14:54:20;;;;;;;7.25;3.10;;;;;;;;;;4974398;28;20032;-70
2024/01/25 14:56:49;;;;;;;7.15;2.97;;;;;;;;;;4974729;28;20038;-71
2024/01/25 14:59:16;;;;;;;5.80;3.20;;;;;;;;;;4974391;28;20037;-74
2024/01/25 15:01:42;;;;;;;8.57;3.20;;;;;;;;;;4970791;28;20391;-73
2024/01/25 15:04:08;;;;;;;8.40;3.22;;;;;;;;;;4973729;28;20138;-74
2024/01/25 15:06:34;;;;;;;18.48;4.07;;;;;;;;;;4975800;28;20232;-76
2024/01/25 15:08:59;;;;;;;10.75;3.03;;;;;;;;;;4977431;28;20042;-76
2024/01/25 15:11:25;;;;;;;9.13;2.80;;;;;;;;;;4977405;28;20022;-76
2024/01/25 15:13:50;;;;;;;7.45;2.97;;;;;;;;;;4996630;28;20042;-75
2024/01/25 15:16:16;;;;;;;9.80;2.67;;;;;;;;;;4978718;28;20636;-75
2024/01/25 15:18:41;;;;;;;9.02;2.88;;;;;;;;;;4952542;28;20092;-75
2024/01/25 15:21:07;;;;;;;13.13;2.80;;;;;;;;;;4977113;28;20073;-76
2024/01/25 15:23:33;;;;;;;8.68;2.28;;;;;;;;;;4957358;28;20089;-75
2024/01/25 15:25:58;;;;;;;14.27;3.03;;;;;;;;;;4938731;29;20503;-75
2024/01/25 15:28:24;;;;;;;8.18;2.30;;;;;;;;;;4968409;28;20027;-75
2024/01/25 15:30:49;;;;;;;10.38;2.50;;;;;;;;;;4973214;28;20069;-75
2024/01/25 15:33:15;;;;;;;5.47;2.10;;;;;;;;;;4972508;28;20031;-74
2024/01/25 15:35:40;;;;;;;7.60;2.50;;;;;;;;;;4971426;28;20122;-74
2024/01/25 15:38:07;;;;;;;7.63;2.22;;;;;;;;;;4973616;28;20042;-73
2024/01/25 15:40:34;;;;;;;5.40;2.30;;;;;;;;;;4973763;28;20026;-75
2024/01/25 15:42:59;;;;;;;5.82;1.83;;;;;;;;;;4973844;28;20645;-73
2024/01/25 15:45:25;;;;;;;11.00;2.00;;;;;;;;;;4969372;28;20166;-73
2024/01/25 15:47:50;;;;;;;9.07;2.00;;;;;;;;;;4968596;28;20073;-73
2024/01/25 15:50:20;;;;;;;6.57;2.70;;;;;;;;;;4968141;28;20052;-74
2024/01/25 15:52:46;;;;;;;5.82;2.28;;;;;;;;;;4961675;28;20034;-74
2024/01/25 15:55:11;;;;;;;7.57;2.47;;;;;;;;;;4967504;28;20502;-73
2024/01/25 15:57:37;;;;;;;8.57;2.22;;;;;;;;;;4959671;28;20027;-73
2024/01/25 16:00:03;;;;;;;7.47;2.15;;;;;;;;;;4954871;28;20037;-75
2024/01/25 16:02:29;;;;;;;7.32;1.98;;;;;;;;;;4971289;28;20049;-73
2024/01/25 16:04:54;;;;;;;6.20;1.90;;;;;;;;;;4973091;28;20043;-74
2024/01/25 16:07:20;;;;;;;9.68;2.50;;;;;;;;;;4973403;28;20056;-73
2024/01/25 16:09:46;;;;;;;11.52;2.95;;;;;;;;;;4972989;28;20038;-73
2024/01/25 16:12:11;;;;;;;8.55;2.75;;;;;;;;;;4973253;28;20047;-74
2024/01/25 16:14:37;;;;;;;7.47;2.88;;;;;;;;;;4973341;28;20070;-74
2024/01/25 16:17:03;;;;;;;7.85;2.65;;;;;;;;;;4973726;28;20054;-73
2024/01/25 16:19:28;;;;;;;6.90;2.30;;;;;;;;;;4988154;28;20027;-74
2024/01/25 16:21:55;;;;;;;7.30;2.67;;;;;;;;;;4966607;28;20074;-74
2024/01/25 16:24:21;;;;;;;12.82;3.28;;;;;;;;;;4970101;28;20090;-74
2024/01/25 16:26:46;;;;;;;5.88;2.65;;;;;;;;;;4972879;28;20471;-75
2024/01/25 16:29:12;;;;;;;7.35;2.47;;;;;;;;;;4973605;28;20146;-74
2024/01/25 16:31:38;;;;;;;8.98;2.70;;;;;;;;;;4972829;28;20073;-74
2024/01/25 16:34:04;;;;;;;14.18;2.80;;;;;;;;;;4973133;28;20027;-73
2024/01/25 16:36:29;;;;;;;9.23;2.80;;;;;;;;;;4972979;28;20037;-74
2024/01/25 16:38:55;;;;;;;8.35;2.83;;;;;;;;;;4972853;28;20027;-74
2024/01/25 16:41:21;;;;;;;8.10;2.40;;;;;;;;;;4972836;28;20398;-73
2024/01/25 16:43:46;;;;;;;9.27;2.97;;;;;;;;;;4972680;28;20027;-73
2024/01/25 16:46:12;;;;;;;9.13;3.20;;;;;;;;;;4968876;28;20058;-74
2024/01/25 16:48:37;;;;;;;7.30;2.20;;;;;;;;;;4972403;28;20029;-74
2024/01/25 16:51:03;;;;;;;5.50;2.45;;;;;;;;;;4973309;28;20039;-74
2024/01/25 16:53:29;;;;;;;6.80;2.42;;;;;;;;;;4972348;28;20034;-73
2024/01/25 16:55:54;;;;;;;9.10;2.45;;;;;;;;;;4972145;28;20026;-73
2024/01/25 16:58:20;;;;;;;7.25;2.83;;;;;;;;;;4972664;28;20424;-74
2024/01/25 17:00:46;;;;;;;8.30;2.70;;;;;;;;;;4972172;28;20474;-74
2024/01/25 17:03:12;;;;;;;9.43;3.17;;;;;;;;;;4968497;28;20041;-73
2024/01/25 17:05:37;;;;;;;6.47;2.53;;;;;;;;;;4972084;28;20050;-73
2024/01/25 17:08:03;;;;;;;10.40;3.20;;;;;;;;;;4962085;28;20038;-74
2024/01/25 17:10:31;;;;;;;7.47;2.58;;;;;;;;;;4972010;28;20054;-73
2024/01/25 17:12:56;;;;;;;8.43;2.45;;;;;;;;;;4964274;28;20151;-73
2024/01/25 17:15:22;;;;;;;9.82;2.58;;;;;;;;;;4955618;28;20032;-73
2024/01/25 17:17:47;;;;;;;9.10;2.95;;;;;;;;;;4952722;28;20476;-75
2024/01/25 17:20:13;;;;;;;8.30;2.58;;;;;;;;;;4952922;29;20031;-72
2024/01/25 17:22:39;;;;;;;10.20;2.35;;;;;;;;;;4952963;29;20062;-72
2024/01/25 17:25:06;;;;;;;6.05;2.10;;;;;;;;;;4952851;28;20039;-73
2024/01/25 17:27:31;;;;;;;12.18;2.70;;;;;;;;;;4962275;28;20491;-74
2024/01/25 17:29:57;;;;;;;10.57;3.40;;;;;;;;;;4966754;28;20038;-72
2024/01/25 17:32:22;;;;;;;10.07;3.20;;;;;;;;;;4971973;28;20053;-73
2024/01/25 17:34:48;;;;;;;8.82;2.90;;;;;;;;;;4951858;28;20066;-74
2024/01/25 17:37:13;;;;;;;8.00;2.30;;;;;;;;;;4969102;28;20078;-75
2024/01/25 17:39:39;;;;;;;12.40;2.88;;;;;;;;;;4970325;28;20053;-73
2024/01/25 17:42:05;;;;;;;18.20;3.60;;;;;;;;;;4971818;28;20101;-73
2024/01/25 17:44:30;;;;;;;9.00;2.80;;;;;;;;;;4971853;28;20066;-73
2024/01/25 17:46:56;;;;;;;6.53;2.20;;;;;;;;;;4971955;28;20034;-73
2024/01/25 17:49:21;;;;;;;12.80;3.30;;;;;;;;;;4971781;28;20034;-73
2024/01/25 17:51:47;;;;;;;7.32;2.63;;;;;;;;;;4971748;28;20094;-73
2024/01/25 17:54:13;;;;;;;6.72;2.65;;;;;;;;;;4968364;28;20082;-73
2024/01/25 17:56:40;;;;;;;8.70;3.05;;;;;;;;;;4953835;28;20040;-73
2024/01/25 17:59:07;;;;;;;7.75;2.53;;;;;;;;;;4960684;28;20034;-73
2024/01/25 18:01:33;;;;;;;8.57;2.47;;;;;;;;;;4949047;28;20031;-74
2024/01/25 18:03:59;;;;;;;8.02;2.75;;;;;;;;;;4955879;28;20035;-74
2024/01/25 18:06:24;;;;;;;12.90;3.17;;;;;;;;;;4956072;29;20035;-73
2024/01/25 18:08:50;;;;;;;12.48;2.95;;;;;;;;;;4960052;28;20027;-75
2024/01/25 18:11:15;;;;;;;13.20;3.15;;;;;;;;;;4956253;28;20023;-74
2024/01/25 18:13:41;;;;;;;8.52;2.60;;;;;;;;;;4955999;29;20035;-75
2024/01/25 18:16:06;;;;;;;7.93;2.30;;;;;;;;;;4956165;28;20073;-75
2024/01/25 18:18:33;;;;;;;11.00;2.55;;;;;;;;;;4956125;28;20019;-75
2024/01/25 18:20:58;;;;;;;11.05;2.75;;;;;;;;;;4956121;29;20062;-75
2024/01/25 18:23:24;;;;;;;8.88;2.20;;;;;;;;;;4956205;28;20689;-75
2024/01/25 18:25:49;;;;;;;7.35;2.33;;;;;;;;;;4975309;28;20054;-74
2024/01/25 18:28:16;;;;;;;9.00;2.63;;;;;;;;;;4963434;28;20039;-75
2024/01/25 18:30:42;;;;;;;15.23;2.47;;;;;;;;;;4967804;28;20487;-74
2024/01/25 18:33:07;;;;;;;12.05;3.20;;;;;;;;;;4953807;28;20050;-75
2024/01/25 18:35:33;;;;;;;15.50;3.63;;;;;;;;;;4981883;28;20121;-74
2024/01/25 18:37:59;;;;;;;8.82;2.75;;;;;;;;;;4967797;28;20032;-75
2024/01/25 18:40:24;;;;;;;10.80;2.83;;;;;;;;;;4975288;28;20060;-74
2024/01/25 18:42:50;;;;;;;7.78;2.00;;;;;;;;;;4966621;28;20053;-74
2024/01/25 18:45:15;;;;;;;11.13;2.55;;;;;;;;;;4956743;28;20035;-75
2024/01/25 18:47:41;;;;;;;10.80;3.08;;;;;;;;;;4960637;28;20075;-75
2024/01/25 18:50:07;;;;;;;9.73;3.03;;;;;;;;;;4941026;29;20035;-75
2024/01/25 18:52:32;;;;;;;10.75;3.03;;;;;;;;;;4955941;28;20519;-75
2024/01/25 18:54:59;;;;;;;10.40;2.78;;;;;;;;;;4955880;29;20114;-76
2024/01/25 18:57:25;;;;;;;9.88;3.10;;;;;;;;;;4970643;28;20027;-74
2024/01/25 18:59:50;;;;;;;11.25;3.00;;;;;;;;;;4974595;28;20039;-75
2024/01/25 19:02:16;;;;;;;11.68;3.05;;;;;;;;;;4974962;28;20065;-75
2024/01/25 19:04:42;;;;;;;8.27;2.50;;;;;;;;;;4975623;28;20039;-75
2024/01/25 19:07:08;;;;;;;7.47;2.40;;;;;;;;;;4952286;28;20488;-76
2024/01/25 19:09:35;;;;;;;10.32;3.58;;;;;;;;;;4963527;28;20038;-75
2024/01/25 19:12:01;;;;;;;10.00;2.63;;;;;;;;;;4966750;28;20043;-77
2024/01/25 19:14:26;;;;;;;9.20;2.40;;;;;;;;;;4947325;28;20419;-76
2024/01/25 19:16:52;;;;;;;7.55;2.63;;;;;;;;;;4938244;29;20035;-76
2024/01/25 19:19:17;;;;;;;10.55;2.65;;;;;;;;;;4955967;29;20038;-77
2024/01/25 19:21:43;;;;;;;7.70;2.50;;;;;;;;;;4965700;28;20023;-77
2024/01/25 19:24:16;;;;;;;6.05;2.00;;;;;;;;;;4976993;28;20030;-76
2024/01/25 19:26:41;;;;;;;15.73;3.22;;;;;;;;;;4974771;28;20070;-75
2024/01/25 19:29:07;;;;;;;12.30;2.63;;;;;;;;;;4976703;28;20062;-76
2024/01/25 19:31:32;;;;;;;11.43;2.50;;;;;;;;;;4973698;28;20055;-76
2024/01/25 19:33:58;;;;;;;11.27;2.60;;;;;;;;;;4967222;28;20395;-78
2024/01/25 19:36:24;;;;;;;14.75;2.60;;;;;;;;;;4971760;28;20026;-75
2024/01/25 19:38:49;;;;;;;11.10;2.65;;;;;;;;;;4978607;28;20613;-68
2024/01/25 19:41:15;;;;;;;16.25;2.45;;;;;;;;;;4973836;28;20735;-70
2024/01/25 19:43:40;;;;;;;7.53;2.40;;;;;;;;;;4970069;28;20038;-71
2024/01/25 19:46:06;;;;;;;8.95;2.30;;;;;;;;;;4972479;28;20030;-71
2024/01/25 19:48:33;;;;;;;10.52;2.60;;;;;;;;;;4971878;28;20089;-71
2024/01/25 19:50:59;;;;;;;11.10;2.72;;;;;;;;;;4971541;28;20041;-71
2024/01/25 19:53:24;;;;;;;7.45;2.70;;;;;;;;;;4973667;28;20046;-72
2024/01/25 19:55:50;;;;;;;8.18;2.63;;;;;;;;;;4973174;28;20018;-71
2024/01/25 19:58:16;;;;;;;7.43;2.15;;;;;;;;;;4972759;28;20031;-72
2024/01/25 20:00:43;;;;;;;10.35;2.63;;;;;;;;;;4973295;28;20027;-71
2024/01/25 20:03:09;;;;;;;6.20;2.38;;;;;;;;;;4973824;28;20039;-71
2024/01/25 20:05:35;;;;;;;11.88;2.80;;;;;;;;;;4973580;28;20051;-72
2024/01/25 20:08:01;;;;;;;6.13;2.05;;;;;;;;;;4973372;28;20033;-71
2024/01/25 20:10:27;;;;;;;10.02;2.47;;;;;;;;;;4955737;28;20034;-71
2024/01/25 20:12:52;;;;;;;12.25;2.20;;;;;;;;;;4973157;28;20037;-72
2024/01/25 20:15:19;;;;;;;8.18;2.25;;;;;;;;;;4973445;28;20046;-73
2024/01/25 20:17:45;;;;;;;6.60;2.50;;;;;;;;;;4973225;28;20070;-71
2024/01/25 20:20:11;;;;;;;7.47;2.70;;;;;;;;;;4973295;28;20058;-71
2024/01/25 20:22:38;;;;;;;5.93;2.38;;;;;;;;;;4973597;28;20110;-72
2024/01/25 20:25:05;;;;;;;8.85;2.42;;;;;;;;;;4955370;28;20027;-71
2024/01/25 20:27:30;;;;;;;7.88;2.10;;;;;;;;;;4972562;28;20117;-72
2024/01/25 20:29:56;;;;;;;3.67;2.13;;;;;;;;;;4972210;28;20105;-71
2024/01/25 20:32:21;;;;;;;6.65;2.15;;;;;;;;;;4972907;28;20443;-72
2024/01/25 20:34:47;;;;;;;6.10;2.25;;;;;;;;;;4973033;28;20130;-72
2024/01/25 20:37:13;;;;;;;10.00;2.60;;;;;;;;;;4972895;28;20365;-72
2024/01/25 20:39:38;;;;;;;6.63;2.03;;;;;;;;;;4973153;28;20026;-72
2024/01/25 20:42:04;;;;;;;7.38;2.50;;;;;;;;;;4972812;28;20117;-72
2024/01/25 20:44:30;;;;;;;8.13;2.40;;;;;;;;;;4973162;28;20022;-71
2024/01/25 20:46:55;;;;;;;7.55;2.30;;;;;;;;;;4972819;28;20030;-71
2024/01/25 20:49:21;;;;;;;7.90;2.35;;;;;;;;;;4972576;28;20110;-71
2024/01/25 20:51:46;;;;;;;5.57;2.42;;;;;;;;;;4972589;28;20134;-71
2024/01/25 20:54:12;;;;;;;2.85;1.98;;;;;;;;;;4973896;28;20074;-70
2024/01/25 20:56:37;;;;;;;5.65;1.95;;;;;;;;;;4971723;28;20030;-76
2024/01/25 20:59:03;;;;;;;14.57;2.70;;;;;;;;;;4959984;28;20098;-70
2024/01/25 21:01:28;;;;;;;8.35;2.13;;;;;;;;;;4954748;28;20027;-72
2024/01/25 21:03:54;;;;;;;5.03;2.08;;;;;;;;;;4955492;28;20027;-67
2024/01/25 21:06:21;;;;;;;4.65;2.33;;;;;;;;;;4957185;28;20058;-71
2024/01/25 21:08:48;;;;;;;5.55;2.42;;;;;;;;;;4975102;28;20498;-70
2024/01/25 21:11:14;;;;;;;4.93;1.80;;;;;;;;;;4973802;28;20085;-69
2024/01/25 21:13:46;;;;;;;6.00;2.05;;;;;;;;;;4951716;28;20031;-67
2024/01/25 21:16:13;;;;;;;8.27;2.65;;;;;;;;;;4964515;28;20019;-69
2024/01/25 21:18:38;;;;;;;9.70;2.40;;;;;;;;;;4962827;28;20054;-68
2024/01/25 21:21:04;;;;;;;4.85;1.92;;;;;;;;;;4968085;28;20058;-69
2024/01/25 21:23:30;;;;;;;5.88;1.95;;;;;;;;;;4973810;28;20027;-68
2024/01/25 21:25:56;;;;;;;4.63;2.28;;;;;;;;;;4963183;28;20043;-69
2024/01/25 21:28:21;;;;;;;7.60;2.28;;;;;;;;;;4973843;28;20022;-68